createdAt,value
2022-08-26T00:01:38.452Z,21.76
2022-08-26T00:04:05.429Z,21.62
2022-08-26T00:06:32.914Z,21.49
2022-08-26T00:08:59.739Z,21.40
2022-08-26T00:11:27.213Z,21.36
2022-08-26T00:13:53.943Z,21.36
2022-08-26T00:16:22.235Z,21.36
2022-08-26T00:18:49.016Z,21.38
2022-08-26T00:21:16.180Z,21.37
2022-08-26T00:23:42.933Z,21.29
2022-08-26T00:26:11.674Z,21.22
2022-08-26T00:28:39.529Z,21.17
2022-08-26T00:31:07.640Z,21.13
2022-08-26T00:33:39.505Z,21.05
2022-08-26T00:36:06.780Z,20.93
2022-08-26T00:38:34.702Z,20.86
2022-08-26T00:41:05.543Z,20.76
2022-08-26T00:43:47.484Z,20.69
2022-08-26T00:46:19.576Z,20.57
2022-08-26T00:48:52.356Z,20.47
2022-08-26T00:51:22.176Z,20.44
2022-08-26T00:53:53.639Z,20.45
2022-08-26T00:56:26.463Z,20.47
2022-08-26T00:58:56.761Z,20.48
2022-08-26T01:01:23.545Z,20.48
2022-08-26T01:03:52.624Z,20.48
2022-08-26T01:06:19.871Z,20.44
2022-08-26T01:08:46.560Z,20.41
2022-08-26T01:11:13.754Z,20.34
2022-08-26T01:13:41.117Z,20.29
2022-08-26T01:16:12.794Z,20.34
2022-08-26T01:18:40.357Z,20.38
2022-08-26T01:21:17.922Z,20.45
2022-08-26T01:23:49.673Z,20.46
2022-08-26T01:26:20.171Z,20.43
2022-08-26T01:28:51.577Z,20.39
2022-08-26T01:31:22.525Z,20.40
2022-08-26T01:33:56.790Z,20.46
2022-08-26T01:36:24.474Z,20.46
2022-08-26T01:38:52.904Z,20.45
2022-08-26T01:41:20.679Z,20.46
2022-08-26T01:43:56.292Z,20.49
2022-08-26T01:46:28.242Z,20.53
2022-08-26T01:48:57.456Z,20.56
2022-08-26T01:51:27.400Z,20.59
2022-08-26T01:53:55.664Z,20.60
2022-08-26T01:56:23.888Z,20.59
2022-08-26T01:58:54.100Z,20.60
2022-08-26T02:01:22.531Z,20.59
2022-08-26T02:04:03.089Z,20.60
2022-08-26T02:06:30.639Z,20.54
2022-08-26T02:09:01.961Z,20.45
2022-08-26T02:11:28.636Z,20.33
2022-08-26T02:14:02.741Z,20.30
2022-08-26T02:16:34.476Z,20.30
2022-08-26T02:19:04.691Z,20.30
2022-08-26T02:21:33.921Z,20.31
2022-08-26T02:24:11.384Z,20.36
2022-08-26T02:26:39.288Z,20.29
2022-08-26T02:29:09.736Z,20.22
2022-08-26T02:31:36.499Z,20.11
2022-08-26T02:34:10.830Z,20.08
2022-08-26T02:36:38.110Z,20.06
2022-08-26T02:39:07.414Z,20.10
2022-08-26T02:41:35.705Z,20.13
2022-08-26T02:44:11.903Z,20.10
2022-08-26T02:46:39.183Z,20.02
2022-08-26T02:49:06.954Z,19.92
2022-08-26T02:51:33.671Z,19.87
2022-08-26T02:54:00.363Z,19.87
2022-08-26T02:56:29.292Z,19.91
2022-08-26T02:58:57.324Z,19.99
2022-08-26T03:01:26.537Z,20.02
2022-08-26T03:03:54.234Z,20.03
2022-08-26T03:06:21.282Z,20.04
2022-08-26T03:08:48.173Z,20.07
2022-08-26T03:11:15.179Z,20.10
2022-08-26T03:13:42.393Z,20.10
2022-08-26T03:16:11.000Z,20.09
2022-08-26T03:18:38.129Z,20.06
2022-08-26T03:21:06.285Z,20.05
2022-08-26T03:23:33.345Z,20.06
2022-08-26T03:26:01.402Z,20.07
2022-08-26T03:28:28.182Z,20.05
2022-08-26T03:30:54.927Z,19.98
2022-08-26T03:33:23.540Z,19.95
2022-08-26T03:35:51.390Z,19.95
2022-08-26T03:38:19.269Z,20.00
2022-08-26T03:40:46.356Z,20.01
2022-08-26T03:43:13.987Z,20.03
2022-08-26T03:45:41.115Z,20.02
2022-08-26T03:48:10.174Z,19.98
2022-08-26T03:50:38.856Z,19.91
2022-08-26T03:53:07.473Z,19.87
2022-08-26T03:55:39.699Z,19.86
2022-08-26T03:58:06.351Z,19.90
2022-08-26T04:00:33.040Z,19.94
2022-08-26T04:03:01.249Z,19.98
2022-08-26T04:05:28.376Z,20.02
2022-08-26T04:07:56.417Z,20.04
2022-08-26T04:10:28.515Z,20.05
2022-08-26T04:12:55.598Z,20.04
2022-08-26T04:15:26.207Z,20.03
2022-08-26T04:17:53.012Z,20.03
2022-08-26T04:20:19.769Z,20.02
2022-08-26T04:22:46.577Z,19.97
2022-08-26T04:25:14.858Z,19.89
2022-08-26T04:27:41.595Z,19.84
2022-08-26T04:30:10.163Z,19.81
2022-08-26T04:32:37.483Z,19.80
2022-08-26T04:35:05.577Z,19.76
2022-08-26T04:37:33.608Z,19.66
2022-08-26T04:40:00.407Z,19.60
2022-08-26T04:42:29.879Z,19.59
2022-08-26T04:44:56.640Z,19.58
2022-08-26T04:47:27.031Z,19.59
2022-08-26T04:49:57.749Z,19.58
2022-08-26T04:52:24.821Z,19.62
2022-08-26T04:54:52.505Z,19.63
2022-08-26T04:57:19.168Z,19.63
2022-08-26T04:59:47.253Z,19.63
2022-08-26T05:02:16.255Z,19.56
2022-08-26T05:04:43.687Z,19.49
2022-08-26T05:07:10.712Z,19.42
2022-08-26T05:09:39.203Z,19.37
2022-08-26T05:12:08.006Z,19.37
2022-08-26T05:14:36.782Z,19.37
2022-08-26T05:17:05.037Z,19.36
2022-08-26T05:19:31.727Z,19.37
2022-08-26T05:21:59.607Z,19.42
2022-08-26T05:24:26.322Z,19.50
2022-08-26T05:26:54.063Z,19.59
2022-08-26T05:29:23.804Z,19.65
2022-08-26T05:31:52.389Z,19.73
2022-08-26T05:34:23.590Z,19.80
2022-08-26T05:36:52.594Z,19.88
2022-08-26T05:39:19.689Z,19.95
2022-08-26T05:41:46.385Z,20.04
2022-08-26T05:44:16.393Z,20.16
2022-08-26T05:46:44.641Z,20.25
2022-08-26T05:49:13.702Z,20.35
2022-08-26T05:51:46.231Z,20.47
2022-08-26T05:54:21.889Z,20.52
2022-08-26T05:56:50.052Z,20.58
2022-08-26T05:59:16.714Z,20.63
2022-08-26T06:01:48.030Z,20.67
2022-08-26T06:04:14.758Z,20.70
2022-08-26T06:06:43.590Z,20.75
2022-08-26T06:09:11.979Z,20.76
2022-08-26T06:11:39.829Z,20.76
2022-08-26T06:14:07.951Z,20.81
2022-08-26T06:16:40.822Z,20.88
2022-08-26T06:19:10.748Z,20.93
2022-08-26T06:21:40.022Z,21.00
2022-08-26T06:24:29.067Z,21.04
2022-08-26T06:27:01.313Z,21.04
2022-08-26T06:29:33.518Z,21.06
2022-08-26T06:32:01.952Z,21.07
2022-08-26T06:34:30.351Z,21.08
2022-08-26T06:36:58.600Z,21.08
2022-08-26T06:39:26.730Z,21.12
2022-08-26T06:41:57.721Z,21.19
2022-08-26T06:44:24.618Z,21.26
2022-08-26T06:46:51.496Z,21.34
2022-08-26T06:49:26.632Z,21.41
2022-08-26T06:51:55.134Z,21.50
2022-08-26T06:54:22.090Z,21.57
2022-08-26T06:56:50.262Z,21.62
2022-08-26T06:59:17.963Z,21.63
2022-08-26T07:01:45.203Z,21.68
2022-08-26T07:04:15.543Z,21.76
2022-08-26T07:06:50.021Z,21.83
2022-08-26T07:09:19.560Z,21.88
2022-08-26T07:11:46.211Z,21.95
2022-08-26T07:14:14.346Z,22.04
2022-08-26T07:16:41.462Z,22.11
2022-08-26T07:19:10.783Z,22.20
2022-08-26T07:24:35.442Z,22.50
2022-08-26T07:27:03.983Z,22.69
2022-08-26T07:29:34.574Z,22.83
2022-08-26T07:32:01.541Z,22.98
2022-08-26T07:34:28.809Z,23.11
2022-08-26T07:36:57.088Z,23.25
2022-08-26T07:39:27.011Z,23.40
2022-08-26T07:41:54.291Z,23.56
2022-08-26T07:44:21.060Z,23.73
2022-08-26T07:46:53.272Z,23.89
2022-08-26T07:49:21.105Z,24.09
2022-08-26T13:58:44.226Z,30.75
2022-08-26T14:07:11.853Z,30.78
2022-08-26T14:24:13.935Z,31.06
2022-08-26T14:26:43.350Z,30.97
2022-08-26T14:29:17.659Z,30.82
2022-08-26T14:34:22.852Z,30.43
2022-08-26T14:36:49.610Z,30.33
2022-08-26T14:39:16.313Z,30.28
2022-08-26T14:41:53.931Z,30.35
2022-08-26T14:44:24.265Z,30.36
2022-08-26T14:46:56.716Z,30.40
2022-08-26T14:49:26.904Z,30.41
2022-08-26T14:54:38.403Z,30.25
2022-08-26T15:05:20.592Z,30.24
2022-08-26T15:07:49.530Z,30.25
2022-08-26T15:13:01.879Z,30.38
2022-08-26T15:15:30.495Z,30.38
2022-08-26T15:17:57.267Z,30.27
2022-08-26T15:20:25.776Z,30.16
2022-08-26T15:22:52.507Z,30.11
2022-08-26T15:25:20.443Z,30.10
2022-08-26T15:27:47.327Z,30.13
2022-08-26T15:30:20.382Z,30.20
2022-08-26T15:32:47.356Z,30.19
2022-08-26T15:40:44.883Z,30.16
2022-08-26T16:03:31.913Z,30.28
2022-08-26T16:05:59.255Z,30.33
2022-08-26T16:11:08.943Z,30.36
2022-08-26T16:16:17.211Z,30.34
2022-08-26T16:18:45.604Z,30.29
2022-08-26T16:21:15.996Z,30.20
2022-08-26T16:23:44.934Z,30.16
2022-08-26T16:26:14.943Z,30.18
2022-08-26T16:28:42.177Z,30.16
2022-08-26T16:31:10.958Z,30.14
2022-08-26T16:33:38.719Z,30.12
2022-08-26T16:39:31.764Z,30.08
2022-08-26T16:42:22.802Z,30.07
2022-08-26T22:12:21.250Z,22.70
